sensor_id;sensor_type;location;lat;lon;timestamp;temperature;humidity
44487;DHT22;30191;50.908;6.962;2023-04-19T00:00:27;14.80;99.90
44487;DHT22;30191;50.908;6.962;2023-04-19T00:02:52;14.80;99.90
44487;DHT22;30191;50.908;6.962;2023-04-19T00:05:18;14.90;99.90
44487;DHT22;30191;50.908;6.962;2023-04-19T00:07:44;14.80;99.90
44487;DHT22;30191;50.908;6.962;2023-04-19T00:10:11;14.90;99.90
44487;DHT22;30191;50.908;6.962;2023-04-19T00:12:36;14.80;99.90
44487;DHT22;30191;50.908;6.962;2023-04-19T00:15:02;14.80;99.90
44487;DHT22;30191;50.908;6.962;2023-04-19T00:17:28;14.80;99.90
44487;DHT22;30191;50.908;6.962;2023-04-19T00:19:53;14.80;99.90
44487;DHT22;30191;50.908;6.962;2023-04-19T00:22:19;14.80;99.90
44487;DHT22;30191;50.908;6.962;2023-04-19T00:24:45;14.80;99.90
44487;DHT22;30191;50.908;6.962;2023-04-19T00:27:10;14.80;99.90
44487;DHT22;30191;50.908;6.962;2023-04-19T00:29:36;14.70;99.90
44487;DHT22;30191;50.908;6.962;2023-04-19T00:32:01;14.70;99.90
44487;DHT22;30191;50.908;6.962;2023-04-19T00:34:28;14.70;99.90
44487;DHT22;30191;50.908;6.962;2023-04-19T00:36:54;14.70;99.90
44487;DHT22;30191;50.908;6.962;2023-04-19T00:39:20;14.70;99.90
44487;DHT22;30191;50.908;6.962;2023-04-19T00:41:45;14.70;99.90
44487;DHT22;30191;50.908;6.962;2023-04-19T00:44:11;14.70;99.90
44487;DHT22;30191;50.908;6.962;2023-04-19T00:46:36;14.70;99.90
44487;DHT22;30191;50.908;6.962;2023-04-19T00:49:02;14.70;99.90
44487;DHT22;30191;50.908;6.962;2023-04-19T00:51:28;14.70;99.90
44487;DHT22;30191;50.908;6.962;2023-04-19T00:53:54;14.70;99.90
44487;DHT22;30191;50.908;6.962;2023-04-19T00:56:20;14.70;99.90
44487;DHT22;30191;50.908;6.962;2023-04-19T00:58:46;14.70;99.90
44487;DHT22;30191;50.908;6.962;2023-04-19T01:01:13;14.70;99.90
44487;DHT22;30191;50.908;6.962;2023-04-19T01:03:38;14.60;99.90
44487;DHT22;30191;50.908;6.962;2023-04-19T01:06:04;14.60;99.90
44487;DHT22;30191;50.908;6.962;2023-04-19T01:08:30;14.60;99.90
44487;DHT22;30191;50.908;6.962;2023-04-19T01:10:55;14.60;99.90
44487;DHT22;30191;50.908;6.962;2023-04-19T01:13:21;14.60;99.90
44487;DHT22;30191;50.908;6.962;2023-04-19T01:15:46;14.50;99.90
44487;DHT22;30191;50.908;6.962;2023-04-19T01:18:12;14.60;99.90
44487;DHT22;30191;50.908;6.962;2023-04-19T01:20:38;14.60;99.90
44487;DHT22;30191;50.908;6.962;2023-04-19T01:23:04;14.60;99.90
44487;DHT22;30191;50.908;6.962;2023-04-19T01:25:29;14.60;99.90
44487;DHT22;30191;50.908;6.962;2023-04-19T01:27:55;14.50;99.90
44487;DHT22;30191;50.908;6.962;2023-04-19T01:30:20;14.60;99.90
44487;DHT22;30191;50.908;6.962;2023-04-19T01:32:46;14.50;99.90
44487;DHT22;30191;50.908;6.962;2023-04-19T01:35:11;14.50;99.90
44487;DHT22;30191;50.908;6.962;2023-04-19T01:37:37;14.60;99.90
44487;DHT22;30191;50.908;6.962;2023-04-19T01:40:05;14.50;99.90
44487;DHT22;30191;50.908;6.962;2023-04-19T01:42:31;14.50;99.90
44487;DHT22;30191;50.908;6.962;2023-04-19T01:44:57;14.50;99.90
44487;DHT22;30191;50.908;6.962;2023-04-19T01:47:22;14.40;99.90
44487;DHT22;30191;50.908;6.962;2023-04-19T01:49:49;14.40;99.90
44487;DHT22;30191;50.908;6.962;2023-04-19T01:52:14;14.40;99.90
44487;DHT22;30191;50.908;6.962;2023-04-19T01:54:40;14.40;99.90
44487;DHT22;30191;50.908;6.962;2023-04-19T01:57:05;14.40;99.90
44487;DHT22;30191;50.908;6.962;2023-04-19T01:59:31;14.30;99.90
44487;DHT22;30191;50.908;6.962;2023-04-19T02:01:56;14.30;99.90
44487;DHT22;30191;50.908;6.962;2023-04-19T02:04:22;14.30;99.90
44487;DHT22;30191;50.908;6.962;2023-04-19T02:06:47;14.20;99.90
44487;DHT22;30191;50.908;6.962;2023-04-19T02:09:13;14.20;99.90
44487;DHT22;30191;50.908;6.962;2023-04-19T02:11:38;14.20;99.90
44487;DHT22;30191;50.908;6.962;2023-04-19T02:14:04;14.20;99.90
44487;DHT22;30191;50.908;6.962;2023-04-19T02:16:30;14.20;99.90
44487;DHT22;30191;50.908;6.962;2023-04-19T02:18:55;14.10;99.90
44487;DHT22;30191;50.908;6.962;2023-04-19T02:21:21;14.10;99.90
44487;DHT22;30191;50.908;6.962;2023-04-19T02:23:46;14.10;99.90
44487;DHT22;30191;50.908;6.962;2023-04-19T02:26:12;14.10;99.90
44487;DHT22;30191;50.908;6.962;2023-04-19T02:28:37;14.10;99.90
44487;DHT22;30191;50.908;6.962;2023-04-19T02:31:04;14.10;99.90
44487;DHT22;30191;50.908;6.962;2023-04-19T02:33:30;14.10;99.90
44487;DHT22;30191;50.908;6.962;2023-04-19T02:35:56;14.00;99.90
44487;DHT22;30191;50.908;6.962;2023-04-19T02:38:21;14.10;99.90
44487;DHT22;30191;50.908;6.962;2023-04-19T02:40:47;14.10;99.90
44487;DHT22;30191;50.908;6.962;2023-04-19T02:43:12;14.20;99.90
44487;DHT22;30191;50.908;6.962;2023-04-19T02:45:38;14.20;99.90
44487;DHT22;30191;50.908;6.962;2023-04-19T02:48:04;14.10;99.90
44487;DHT22;30191;50.908;6.962;2023-04-19T02:50:31;14.10;99.90
44487;DHT22;30191;50.908;6.962;2023-04-19T02:52:57;14.10;99.90
44487;DHT22;30191;50.908;6.962;2023-04-19T02:55:23;14.10;99.90
44487;DHT22;30191;50.908;6.962;2023-04-19T02:57:48;14.10;99.90
44487;DHT22;30191;50.908;6.962;2023-04-19T03:00:14;14.20;99.90
44487;DHT22;30191;50.908;6.962;2023-04-19T03:02:40;14.10;99.90
44487;DHT22;30191;50.908;6.962;2023-04-19T03:05:08;14.10;99.90
44487;DHT22;30191;50.908;6.962;2023-04-19T03:07:33;14.10;99.90
44487;DHT22;30191;50.908;6.962;2023-04-19T03:09:59;14.10;99.90
44487;DHT22;30191;50.908;6.962;2023-04-19T03:12:25;14.00;99.90
44487;DHT22;30191;50.908;6.962;2023-04-19T03:14:50;14.10;99.90
44487;DHT22;30191;50.908;6.962;2023-04-19T03:17:16;14.10;99.90
44487;DHT22;30191;50.908;6.962;2023-04-19T03:19:42;14.00;99.90
44487;DHT22;30191;50.908;6.962;2023-04-19T03:22:07;14.00;99.90
44487;DHT22;30191;50.908;6.962;2023-04-19T03:24:33;14.00;99.90
44487;DHT22;30191;50.908;6.962;2023-04-19T03:26:58;13.90;99.90
44487;DHT22;30191;50.908;6.962;2023-04-19T03:29:24;13.90;99.90
44487;DHT22;30191;50.908;6.962;2023-04-19T03:31:49;13.90;99.90
44487;DHT22;30191;50.908;6.962;2023-04-19T03:34:15;13.90;99.90
44487;DHT22;30191;50.908;6.962;2023-04-19T03:36:40;13.80;99.90
44487;DHT22;30191;50.908;6.962;2023-04-19T03:39:06;13.80;99.90
44487;DHT22;30191;50.908;6.962;2023-04-19T03:41:32;13.80;99.90
44487;DHT22;30191;50.908;6.962;2023-04-19T03:43:57;13.80;99.90
44487;DHT22;30191;50.908;6.962;2023-04-19T03:46:23;13.90;99.90
44487;DHT22;30191;50.908;6.962;2023-04-19T03:48:49;13.80;99.90
44487;DHT22;30191;50.908;6.962;2023-04-19T03:51:14;13.80;99.90
44487;DHT22;30191;50.908;6.962;2023-04-19T03:53:40;13.80;99.90
44487;DHT22;30191;50.908;6.962;2023-04-19T03:56:06;13.80;99.90
44487;DHT22;30191;50.908;6.962;2023-04-19T03:58:31;13.80;99.90
44487;DHT22;30191;50.908;6.962;2023-04-19T04:00:57;13.80;99.90
44487;DHT22;30191;50.908;6.962;2023-04-19T04:03:23;13.80;99.90
44487;DHT22;30191;50.908;6.962;2023-04-19T04:05:48;13.80;99.90
44487;DHT22;30191;50.908;6.962;2023-04-19T04:08:14;13.80;99.90
44487;DHT22;30191;50.908;6.962;2023-04-19T04:10:39;13.80;99.90
44487;DHT22;30191;50.908;6.962;2023-04-19T04:13:05;13.70;99.90
44487;DHT22;30191;50.908;6.962;2023-04-19T04:15:30;13.70;99.90
44487;DHT22;30191;50.908;6.962;2023-04-19T04:17:56;13.70;99.90
44487;DHT22;30191;50.908;6.962;2023-04-19T04:20:21;13.70;99.90
44487;DHT22;30191;50.908;6.962;2023-04-19T04:22:47;13.70;99.90
44487;DHT22;30191;50.908;6.962;2023-04-19T04:25:13;13.70;99.90
44487;DHT22;30191;50.908;6.962;2023-04-19T04:27:40;13.80;99.90
44487;DHT22;30191;50.908;6.962;2023-04-19T04:30:07;13.70;99.90
44487;DHT22;30191;50.908;6.962;2023-04-19T04:32:33;13.80;99.90
44487;DHT22;30191;50.908;6.962;2023-04-19T04:35:05;13.80;99.90
44487;DHT22;30191;50.908;6.962;2023-04-19T04:37:31;13.80;99.90
44487;DHT22;30191;50.908;6.962;2023-04-19T04:39:58;13.80;99.90
44487;DHT22;30191;50.908;6.962;2023-04-19T04:42:24;13.80;99.90
44487;DHT22;30191;50.908;6.962;2023-04-19T04:44:49;13.80;99.90
44487;DHT22;30191;50.908;6.962;2023-04-19T04:47:16;13.80;99.90
44487;DHT22;30191;50.908;6.962;2023-04-19T04:49:41;13.80;99.90
44487;DHT22;30191;50.908;6.962;2023-04-19T04:52:07;13.80;99.90
44487;DHT22;30191;50.908;6.962;2023-04-19T04:54:33;13.80;99.90
44487;DHT22;30191;50.908;6.962;2023-04-19T04:56:58;13.80;99.90
44487;DHT22;30191;50.908;6.962;2023-04-19T04:59:25;13.70;99.90
44487;DHT22;30191;50.908;6.962;2023-04-19T05:01:50;13.70;99.90
44487;DHT22;30191;50.908;6.962;2023-04-19T05:04:16;13.70;99.90
44487;DHT22;30191;50.908;6.962;2023-04-19T05:06:42;13.70;99.90
44487;DHT22;30191;50.908;6.962;2023-04-19T05:09:09;13.70;99.90
44487;DHT22;30191;50.908;6.962;2023-04-19T05:11:34;13.70;99.90
44487;DHT22;30191;50.908;6.962;2023-04-19T05:14:00;13.70;99.90
44487;DHT22;30191;50.908;6.962;2023-04-19T05:16:26;13.70;99.90
44487;DHT22;30191;50.908;6.962;2023-04-19T05:18:51;13.70;99.90
44487;DHT22;30191;50.908;6.962;2023-04-19T05:21:17;13.70;99.90
44487;DHT22;30191;50.908;6.962;2023-04-19T05:23:42;13.70;99.90
44487;DHT22;30191;50.908;6.962;2023-04-19T05:26:08;13.70;99.90
44487;DHT22;30191;50.908;6.962;2023-04-19T05:28:37;13.70;99.90
44487;DHT22;30191;50.908;6.962;2023-04-19T05:31:02;13.70;99.90
44487;DHT22;30191;50.908;6.962;2023-04-19T05:33:28;13.70;99.90
44487;DHT22;30191;50.908;6.962;2023-04-19T05:35:54;13.70;99.90
44487;DHT22;30191;50.908;6.962;2023-04-19T05:38:19;13.70;99.90
44487;DHT22;30191;50.908;6.962;2023-04-19T05:40:45;13.70;99.90
44487;DHT22;30191;50.908;6.962;2023-04-19T05:43:10;13.70;99.90
44487;DHT22;30191;50.908;6.962;2023-04-19T05:45:36;13.70;99.90
44487;DHT22;30191;50.908;6.962;2023-04-19T05:48:01;13.70;99.90
44487;DHT22;30191;50.908;6.962;2023-04-19T05:50:27;13.70;99.90
44487;DHT22;30191;50.908;6.962;2023-04-19T05:52:53;13.70;99.90
44487;DHT22;30191;50.908;6.962;2023-04-19T05:55:18;13.70;99.90
44487;DHT22;30191;50.908;6.962;2023-04-19T05:57:44;13.80;99.90
44487;DHT22;30191;50.908;6.962;2023-04-19T06:00:09;13.80;99.90
44487;DHT22;30191;50.908;6.962;2023-04-19T06:02:35;13.70;99.90
44487;DHT22;30191;50.908;6.962;2023-04-19T06:05:01;13.70;99.90
44487;DHT22;30191;50.908;6.962;2023-04-19T06:07:31;13.70;99.90
44487;DHT22;30191;50.908;6.962;2023-04-19T06:09:56;13.70;99.90
44487;DHT22;30191;50.908;6.962;2023-04-19T06:12:22;13.70;99.90
44487;DHT22;30191;50.908;6.962;2023-04-19T06:14:47;13.70;99.90
44487;DHT22;30191;50.908;6.962;2023-04-19T06:17:13;13.60;99.90
44487;DHT22;30191;50.908;6.962;2023-04-19T06:19:41;13.60;99.90
44487;DHT22;30191;50.908;6.962;2023-04-19T06:22:06;13.50;99.90
44487;DHT22;30191;50.908;6.962;2023-04-19T06:24:32;13.60;99.90
44487;DHT22;30191;50.908;6.962;2023-04-19T06:26:57;13.60;99.90
44487;DHT22;30191;50.908;6.962;2023-04-19T06:29:23;13.50;99.90
44487;DHT22;30191;50.908;6.962;2023-04-19T06:31:49;13.50;99.90
44487;DHT22;30191;50.908;6.962;2023-04-19T06:34:15;13.50;99.90
44487;DHT22;30191;50.908;6.962;2023-04-19T06:36:41;13.50;99.90
44487;DHT22;30191;50.908;6.962;2023-04-19T06:39:06;13.50;99.90
44487;DHT22;30191;50.908;6.962;2023-04-19T06:41:32;13.50;99.90
44487;DHT22;30191;50.908;6.962;2023-04-19T06:43:57;13.50;99.90
44487;DHT22;30191;50.908;6.962;2023-04-19T06:46:23;13.50;99.90
44487;DHT22;30191;50.908;6.962;2023-04-19T06:48:49;13.50;99.90
44487;DHT22;30191;50.908;6.962;2023-04-19T06:51:14;13.50;99.90
44487;DHT22;30191;50.908;6.962;2023-04-19T06:53:40;13.50;99.90
44487;DHT22;30191;50.908;6.962;2023-04-19T06:56:05;13.50;99.90
44487;DHT22;30191;50.908;6.962;2023-04-19T06:58:31;13.50;99.90
44487;DHT22;30191;50.908;6.962;2023-04-19T07:00:57;13.60;99.90
44487;DHT22;30191;50.908;6.962;2023-04-19T07:03:23;13.50;99.90
44487;DHT22;30191;50.908;6.962;2023-04-19T07:05:49;13.60;99.90
44487;DHT22;30191;50.908;6.962;2023-04-19T07:08:16;13.60;99.90
44487;DHT22;30191;50.908;6.962;2023-04-19T07:10:42;13.60;99.90
44487;DHT22;30191;50.908;6.962;2023-04-19T07:13:09;13.70;99.90
44487;DHT22;30191;50.908;6.962;2023-04-19T07:15:35;13.70;99.90
44487;DHT22;30191;50.908;6.962;2023-04-19T07:18:00;13.80;99.90
44487;DHT22;30191;50.908;6.962;2023-04-19T07:20:26;13.90;99.90
44487;DHT22;30191;50.908;6.962;2023-04-19T07:22:51;13.90;99.90
44487;DHT22;30191;50.908;6.962;2023-04-19T07:25:17;13.90;99.90
44487;DHT22;30191;50.908;6.962;2023-04-19T07:27:43;13.90;99.90
44487;DHT22;30191;50.908;6.962;2023-04-19T07:30:08;13.90;99.90
44487;DHT22;30191;50.908;6.962;2023-04-19T07:32:34;13.90;99.90
44487;DHT22;30191;50.908;6.962;2023-04-19T07:35:00;13.90;99.90
44487;DHT22;30191;50.908;6.962;2023-04-19T07:37:25;13.90;99.90
44487;DHT22;30191;50.908;6.962;2023-04-19T07:39:52;13.90;99.90
44487;DHT22;30191;50.908;6.962;2023-04-19T07:42:17;14.00;99.90
44487;DHT22;30191;50.908;6.962;2023-04-19T07:44:43;14.00;99.90
44487;DHT22;30191;50.908;6.962;2023-04-19T07:47:08;14.00;99.90
44487;DHT22;30191;50.908;6.962;2023-04-19T07:49:34;14.00;99.90
44487;DHT22;30191;50.908;6.962;2023-04-19T07:52:00;14.00;99.90
44487;DHT22;30191;50.908;6.962;2023-04-19T07:54:26;14.00;99.90
44487;DHT22;30191;50.908;6.962;2023-04-19T07:56:51;14.00;99.90
44487;DHT22;30191;50.908;6.962;2023-04-19T07:59:17;14.00;99.90
44487;DHT22;30191;50.908;6.962;2023-04-19T08:01:42;14.10;99.90
44487;DHT22;30191;50.908;6.962;2023-04-19T08:04:08;14.10;99.90
44487;DHT22;30191;50.908;6.962;2023-04-19T08:06:34;14.10;99.90
44487;DHT22;30191;50.908;6.962;2023-04-19T08:09:02;14.20;99.90
44487;DHT22;30191;50.908;6.962;2023-04-19T08:11:27;14.20;99.90
44487;DHT22;30191;50.908;6.962;2023-04-19T08:13:53;14.20;99.90
44487;DHT22;30191;50.908;6.962;2023-04-19T08:16:19;14.10;99.90
44487;DHT22;30191;50.908;6.962;2023-04-19T08:18:44;14.10;99.90
44487;DHT22;30191;50.908;6.962;2023-04-19T08:21:10;14.10;99.90
44487;DHT22;30191;50.908;6.962;2023-04-19T08:23:36;14.10;99.90
44487;DHT22;30191;50.908;6.962;2023-04-19T08:26:01;14.10;99.90
44487;DHT22;30191;50.908;6.962;2023-04-19T08:28:27;14.20;99.90
44487;DHT22;30191;50.908;6.962;2023-04-19T08:30:53;14.20;99.90
44487;DHT22;30191;50.908;6.962;2023-04-19T08:33:19;14.20;99.90
44487;DHT22;30191;50.908;6.962;2023-04-19T08:35:44;14.20;99.90
44487;DHT22;30191;50.908;6.962;2023-04-19T08:38:10;14.20;99.90
44487;DHT22;30191;50.908;6.962;2023-04-19T08:40:37;14.20;99.90
44487;DHT22;30191;50.908;6.962;2023-04-19T08:43:04;14.30;99.90
44487;DHT22;30191;50.908;6.962;2023-04-19T08:45:31;14.30;99.90
44487;DHT22;30191;50.908;6.962;2023-04-19T08:47:57;14.40;99.90
44487;DHT22;30191;50.908;6.962;2023-04-19T08:50:22;14.40;99.90
44487;DHT22;30191;50.908;6.962;2023-04-19T08:52:48;14.40;99.90
44487;DHT22;30191;50.908;6.962;2023-04-19T08:55:14;14.50;99.90
44487;DHT22;30191;50.908;6.962;2023-04-19T08:57:40;14.50;99.90
44487;DHT22;30191;50.908;6.962;2023-04-19T09:00:05;14.50;99.90
44487;DHT22;30191;50.908;6.962;2023-04-19T09:02:48;14.50;99.90
44487;DHT22;30191;50.908;6.962;2023-04-19T09:05:14;14.60;99.90
44487;DHT22;30191;50.908;6.962;2023-04-19T09:07:40;14.60;99.90
44487;DHT22;30191;50.908;6.962;2023-04-19T09:10:07;14.70;99.90
44487;DHT22;30191;50.908;6.962;2023-04-19T09:12:33;14.70;99.80
44487;DHT22;30191;50.908;6.962;2023-04-19T09:14:59;14.70;99.50
44487;DHT22;30191;50.908;6.962;2023-04-19T09:17:25;14.80;98.90
44487;DHT22;30191;50.908;6.962;2023-04-19T09:19:51;14.80;98.80
44487;DHT22;30191;50.908;6.962;2023-04-19T09:22:17;14.80;99.00
44487;DHT22;30191;50.908;6.962;2023-04-19T09:24:42;14.80;98.80
44487;DHT22;30191;50.908;6.962;2023-04-19T09:27:08;14.90;97.80
44487;DHT22;30191;50.908;6.962;2023-04-19T09:29:36;14.90;98.00
44487;DHT22;30191;50.908;6.962;2023-04-19T09:32:02;14.90;97.60
44487;DHT22;30191;50.908;6.962;2023-04-19T09:34:28;15.00;97.30
44487;DHT22;30191;50.908;6.962;2023-04-19T09:36:55;15.00;96.90
44487;DHT22;30191;50.908;6.962;2023-04-19T09:39:30;14.90;97.00
44487;DHT22;30191;50.908;6.962;2023-04-19T09:41:56;15.00;96.80
44487;DHT22;30191;50.908;6.962;2023-04-19T09:44:22;15.00;96.50
44487;DHT22;30191;50.908;6.962;2023-04-19T09:46:48;15.00;97.40
44487;DHT22;30191;50.908;6.962;2023-04-19T09:49:19;15.00;97.60
44487;DHT22;30191;50.908;6.962;2023-04-19T09:52:08;15.00;96.90
44487;DHT22;30191;50.908;6.962;2023-04-19T09:54:33;15.10;96.80
44487;DHT22;30191;50.908;6.962;2023-04-19T09:56:58;15.10;96.60
44487;DHT22;30191;50.908;6.962;2023-04-19T09:59:28;15.10;96.10
44487;DHT22;30191;50.908;6.962;2023-04-19T10:01:54;15.10;96.20
44487;DHT22;30191;50.908;6.962;2023-04-19T10:04:29;15.10;96.00
44487;DHT22;30191;50.908;6.962;2023-04-19T10:06:55;15.20;96.60
44487;DHT22;30191;50.908;6.962;2023-04-19T10:09:21;15.10;96.80
44487;DHT22;30191;50.908;6.962;2023-04-19T10:11:48;15.10;96.90
44487;DHT22;30191;50.908;6.962;2023-04-19T10:14:14;15.10;96.70
44487;DHT22;30191;50.908;6.962;2023-04-19T10:16:40;15.20;96.20
44487;DHT22;30191;50.908;6.962;2023-04-19T10:19:15;15.30;95.70
44487;DHT22;30191;50.908;6.962;2023-04-19T10:21:41;15.30;95.30
44487;DHT22;30191;50.908;6.962;2023-04-19T10:24:08;15.20;95.20
44487;DHT22;30191;50.908;6.962;2023-04-19T10:32:05;15.30;96.00
44487;DHT22;30191;50.908;6.962;2023-04-19T10:34:38;15.30;95.50
44487;DHT22;30191;50.908;6.962;2023-04-19T10:37:04;15.40;95.10
44487;DHT22;30191;50.908;6.962;2023-04-19T10:39:39;15.40;95.00
44487;DHT22;30191;50.908;6.962;2023-04-19T10:42:05;15.40;95.80
44487;DHT22;30191;50.908;6.962;2023-04-19T10:44:31;15.50;95.70
44487;DHT22;30191;50.908;6.962;2023-04-19T10:46:57;15.50;95.70
44487;DHT22;30191;50.908;6.962;2023-04-19T10:49:23;15.50;95.60
44487;DHT22;30191;50.908;6.962;2023-04-19T10:51:49;15.60;95.40
44487;DHT22;30191;50.908;6.962;2023-04-19T10:54:27;15.60;95.00
44487;DHT22;30191;50.908;6.962;2023-04-19T10:56:56;15.60;95.00
44487;DHT22;30191;50.908;6.962;2023-04-19T10:59:23;15.70;95.60
44487;DHT22;30191;50.908;6.962;2023-04-19T11:01:52;15.60;95.30
44487;DHT22;30191;50.908;6.962;2023-04-19T11:04:20;15.70;94.40
44487;DHT22;30191;50.908;6.962;2023-04-19T11:09:30;15.80;94.50
44487;DHT22;30191;50.908;6.962;2023-04-19T11:11:57;15.80;94.20
44487;DHT22;30191;50.908;6.962;2023-04-19T11:14:23;15.80;93.80
44487;DHT22;30191;50.908;6.962;2023-04-19T11:16:49;15.90;93.50
44487;DHT22;30191;50.908;6.962;2023-04-19T11:19:15;15.90;92.70
44487;DHT22;30191;50.908;6.962;2023-04-19T11:21:41;15.90;92.20
44487;DHT22;30191;50.908;6.962;2023-04-19T11:24:07;16.00;92.40
44487;DHT22;30191;50.908;6.962;2023-04-19T11:26:32;16.00;92.40
44487;DHT22;30191;50.908;6.962;2023-04-19T11:28:59;16.00;92.00
44487;DHT22;30191;50.908;6.962;2023-04-19T11:31:24;16.10;91.60
44487;DHT22;30191;50.908;6.962;2023-04-19T11:33:50;16.10;91.10
44487;DHT22;30191;50.908;6.962;2023-04-19T11:36:16;16.20;90.80
44487;DHT22;30191;50.908;6.962;2023-04-19T11:38:45;16.10;90.50
44487;DHT22;30191;50.908;6.962;2023-04-19T11:41:11;16.10;91.10
44487;DHT22;30191;50.908;6.962;2023-04-19T11:43:37;16.20;91.30
44487;DHT22;30191;50.908;6.962;2023-04-19T11:46:05;16.20;90.80
44487;DHT22;30191;50.908;6.962;2023-04-19T11:48:31;16.30;90.20
44487;DHT22;30191;50.908;6.962;2023-04-19T11:50:57;16.40;88.90
44487;DHT22;30191;50.908;6.962;2023-04-19T11:53:24;16.50;88.30
44487;DHT22;30191;50.908;6.962;2023-04-19T11:55:50;16.50;87.40
44487;DHT22;30191;50.908;6.962;2023-04-19T12:00:48;16.70;86.60
44487;DHT22;30191;50.908;6.962;2023-04-19T12:03:13;16.80;85.60
44487;DHT22;30191;50.908;6.962;2023-04-19T12:05:39;16.80;85.30
44487;DHT22;30191;50.908;6.962;2023-04-19T12:08:15;16.90;83.60
44487;DHT22;30191;50.908;6.962;2023-04-19T12:10:53;16.80;81.10
44487;DHT22;30191;50.908;6.962;2023-04-19T12:13:19;16.80;80.70
44487;DHT22;30191;50.908;6.962;2023-04-19T12:15:45;16.80;79.30
44487;DHT22;30191;50.908;6.962;2023-04-19T12:18:11;16.80;79.00
44487;DHT22;30191;50.908;6.962;2023-04-19T12:20:37;16.90;80.10
44487;DHT22;30191;50.908;6.962;2023-04-19T12:23:03;17.00;77.90
44487;DHT22;30191;50.908;6.962;2023-04-19T12:27:54;17.20;75.20
44487;DHT22;30191;50.908;6.962;2023-04-19T12:30:20;17.20;75.20
44487;DHT22;30191;50.908;6.962;2023-04-19T12:32:46;17.30;73.40
44487;DHT22;30191;50.908;6.962;2023-04-19T12:35:11;17.30;72.20
44487;DHT22;30191;50.908;6.962;2023-04-19T12:37:37;17.40;72.20
44487;DHT22;30191;50.908;6.962;2023-04-19T12:40:02;17.50;71.50
44487;DHT22;30191;50.908;6.962;2023-04-19T12:42:28;17.60;72.10
44487;DHT22;30191;50.908;6.962;2023-04-19T12:44:53;17.80;74.30
44487;DHT22;30191;50.908;6.962;2023-04-19T12:47:19;18.10;73.30
44487;DHT22;30191;50.908;6.962;2023-04-19T12:49:44;18.40;71.40
44487;DHT22;30191;50.908;6.962;2023-04-19T12:52:13;18.70;69.40
44487;DHT22;30191;50.908;6.962;2023-04-19T12:54:38;19.00;68.50
44487;DHT22;30191;50.908;6.962;2023-04-19T12:57:04;19.30;69.20
44487;DHT22;30191;50.908;6.962;2023-04-19T12:59:29;19.50;66.50
44487;DHT22;30191;50.908;6.962;2023-04-19T13:01:55;19.70;67.10
44487;DHT22;30191;50.908;6.962;2023-04-19T13:04:23;19.80;64.20
44487;DHT22;30191;50.908;6.962;2023-04-19T13:06:49;20.00;63.30
44487;DHT22;30191;50.908;6.962;2023-04-19T13:09:14;20.10;62.30
44487;DHT22;30191;50.908;6.962;2023-04-19T13:11:40;20.20;61.70
44487;DHT22;30191;50.908;6.962;2023-04-19T13:14:05;20.30;60.40
44487;DHT22;30191;50.908;6.962;2023-04-19T13:16:31;20.50;60.20
44487;DHT22;30191;50.908;6.962;2023-04-19T13:18:56;20.70;59.60
44487;DHT22;30191;50.908;6.962;2023-04-19T13:21:22;21.10;60.40
44487;DHT22;30191;50.908;6.962;2023-04-19T13:23:48;21.70;59.30
44487;DHT22;30191;50.908;6.962;2023-04-19T13:26:14;22.10;58.70
44487;DHT22;30191;50.908;6.962;2023-04-19T13:28:40;22.70;58.30
44487;DHT22;30191;50.908;6.962;2023-04-19T13:31:06;23.30;56.00
44487;DHT22;30191;50.908;6.962;2023-04-19T13:33:31;23.60;56.10
44487;DHT22;30191;50.908;6.962;2023-04-19T13:35:57;24.00;53.20
44487;DHT22;30191;50.908;6.962;2023-04-19T13:38:22;24.10;54.80
44487;DHT22;30191;50.908;6.962;2023-04-19T13:40:49;24.20;54.40
44487;DHT22;30191;50.908;6.962;2023-04-19T13:43:15;24.40;55.40
44487;DHT22;30191;50.908;6.962;2023-04-19T13:45:40;24.70;54.90
44487;DHT22;30191;50.908;6.962;2023-04-19T13:48:06;24.60;52.70
44487;DHT22;30191;50.908;6.962;2023-04-19T13:50:31;24.40;53.20
44487;DHT22;30191;50.908;6.962;2023-04-19T13:52:57;24.50;52.50
44487;DHT22;30191;50.908;6.962;2023-04-19T13:55:22;24.50;52.00
44487;DHT22;30191;50.908;6.962;2023-04-19T13:57:48;23.90;51.10
44487;DHT22;30191;50.908;6.962;2023-04-19T14:00:13;23.90;51.70
44487;DHT22;30191;50.908;6.962;2023-04-19T14:02:39;23.90;51.30
44487;DHT22;30191;50.908;6.962;2023-04-19T14:05:05;23.60;50.90
44487;DHT22;30191;50.908;6.962;2023-04-19T14:07:31;23.10;49.90
44487;DHT22;30191;50.908;6.962;2023-04-19T14:09:56;22.70;51.70
44487;DHT22;30191;50.908;6.962;2023-04-19T14:12:22;22.20;52.00
44487;DHT22;30191;50.908;6.962;2023-04-19T14:14:48;21.80;51.50
44487;DHT22;30191;50.908;6.962;2023-04-19T14:17:13;21.50;52.70
44487;DHT22;30191;50.908;6.962;2023-04-19T14:19:39;21.30;52.30
44487;DHT22;30191;50.908;6.962;2023-04-19T14:22:04;21.30;53.10
44487;DHT22;30191;50.908;6.962;2023-04-19T14:24:30;21.30;52.50
44487;DHT22;30191;50.908;6.962;2023-04-19T14:26:56;21.30;53.60
44487;DHT22;30191;50.908;6.962;2023-04-19T14:29:22;21.00;52.80
44487;DHT22;30191;50.908;6.962;2023-04-19T14:31:47;20.90;52.60
44487;DHT22;30191;50.908;6.962;2023-04-19T14:34:13;20.70;51.70
44487;DHT22;30191;50.908;6.962;2023-04-19T14:36:39;20.70;52.80
44487;DHT22;30191;50.908;6.962;2023-04-19T14:39:04;20.80;53.00
44487;DHT22;30191;50.908;6.962;2023-04-19T14:41:30;20.90;53.00
44487;DHT22;30191;50.908;6.962;2023-04-19T14:43:55;20.90;52.30
44487;DHT22;30191;50.908;6.962;2023-04-19T14:46:21;21.00;51.30
44487;DHT22;30191;50.908;6.962;2023-04-19T14:48:46;20.80;51.60
44487;DHT22;30191;50.908;6.962;2023-04-19T14:51:12;20.70;52.00
44487;DHT22;30191;50.908;6.962;2023-04-19T14:53:37;20.80;49.70
44487;DHT22;30191;50.908;6.962;2023-04-19T14:56:03;20.60;50.50
44487;DHT22;30191;50.908;6.962;2023-04-19T14:58:30;20.30;51.00
44487;DHT22;30191;50.908;6.962;2023-04-19T15:00:55;20.40;51.10
44487;DHT22;30191;50.908;6.962;2023-04-19T15:03:21;20.40;50.90
44487;DHT22;30191;50.908;6.962;2023-04-19T15:05:46;20.40;50.60
44487;DHT22;30191;50.908;6.962;2023-04-19T15:08:12;20.50;50.80
44487;DHT22;30191;50.908;6.962;2023-04-19T15:10:37;20.30;50.90
44487;DHT22;30191;50.908;6.962;2023-04-19T15:13:04;20.30;50.90
44487;DHT22;30191;50.908;6.962;2023-04-19T15:15:29;20.20;51.50
44487;DHT22;30191;50.908;6.962;2023-04-19T15:17:55;20.30;51.70
44487;DHT22;30191;50.908;6.962;2023-04-19T15:20:21;20.30;51.70
44487;DHT22;30191;50.908;6.962;2023-04-19T15:22:46;20.30;52.20
44487;DHT22;30191;50.908;6.962;2023-04-19T15:25:12;20.20;52.10
44487;DHT22;30191;50.908;6.962;2023-04-19T15:27:37;20.20;52.20
44487;DHT22;30191;50.908;6.962;2023-04-19T15:30:03;20.30;52.10
44487;DHT22;30191;50.908;6.962;2023-04-19T15:32:29;20.20;51.70
44487;DHT22;30191;50.908;6.962;2023-04-19T15:34:58;20.30;51.20